Map

Track Data

SID SEASON NUMBER BASIN SUBBASIN NAME ISO_TIME NATURE LAT LON WMO_WIND WMO_PRES WMO_AGENCY TRACK_TYPE DIST2LAND LANDFALL IFLAG USA_AGENCY USA_ATCF_ID USA_LAT USA_LON USA_RECORD USA_STATUS USA_WIND USA_PRES USA_SSHS USA_R34_NE USA_R34_SE USA_R34_SW USA_R34_NW USA_R50_NE USA_R50_SE USA_R50_SW USA_R50_NW USA_R64_NE USA_R64_SE USA_R64_SW USA_R64_NW USA_POCI USA_ROCI USA_RMW USA_EYE TOKYO_LAT TOKYO_LON TOKYO_GRADE TOKYO_WIND TOKYO_PRES TOKYO_R50_DIR TOKYO_R50_LONG TOKYO_R50_SHORT TOKYO_R30_DIR TOKYO_R30_LONG TOKYO_R30_SHORT TOKYO_LAND CMA_LAT CMA_LON CMA_CAT CMA_WIND CMA_PRES HKO_LAT HKO_LON HKO_CAT HKO_WIND HKO_PRES NEWDELHI_LAT NEWDELHI_LON NEWDELHI_GRADE NEWDELHI_WIND NEWDELHI_PRES NEWDELHI_CI NEWDELHI_DP NEWDELHI_POCI REUNION_LAT REUNION_LON REUNION_TYPE REUNION_WIND REUNION_PRES REUNION_TNUM REUNION_CI REUNION_RMW REUNION_R34_NE REUNION_R34_SE REUNION_R34_SW REUNION_R34_NW REUNION_R50_NE REUNION_R50_SE REUNION_R50_SW REUNION_R50_NW REUNION_R64_NE REUNION_R64_SE REUNION_R64_SW REUNION_R64_NW BOM_LAT BOM_LON BOM_TYPE BOM_WIND BOM_PRES BOM_TNUM BOM_CI BOM_RMW BOM_R34_NE BOM_R34_SE BOM_R34_SW BOM_R34_NW BOM_R50_NE BOM_R50_SE BOM_R50_SW BOM_R50_NW BOM_R64_NE BOM_R64_SE BOM_R64_SW BOM_R64_NW BOM_ROCI BOM_POCI BOM_EYE BOM_POS_METHOD BOM_PRES_METHOD NADI_LAT NADI_LON NADI_CAT NADI_WIND NADI_PRES WELLINGTON_LAT WELLINGTON_LON WELLINGTON_WIND WELLINGTON_PRES DS824_LAT DS824_LON DS824_STAGE DS824_WIND DS824_PRES TD9636_LAT TD9636_LON TD9636_STAGE TD9636_WIND TD9636_PRES TD9635_LAT TD9635_LON TD9635_WIND TD9635_PRES TD9635_ROCI NEUMANN_LAT NEUMANN_LON NEUMANN_CLASS NEUMANN_WIND NEUMANN_PRES MLC_LAT MLC_LON MLC_CLASS MLC_WIND MLC_PRES USA_GUST BOM_GUST BOM_GUST_PER REUNION_GUST REUNION_GUST_PER USA_SEAHGT USA_SEARAD_NE USA_SEARAD_SE USA_SEARAD_SW USA_SEARAD_NW STORM_SPEED STORM_DIR
1947321N07145 1947 94 WP MM GLADYS 1947-11-17 06:00:00 TS 7.30000 144.500 main 1078 1078 O________O_O__ jtwc_wp WP241947 7.30000 144.500 50 0 7.30000 144.500 TC 50 7.30000 144.500 50 997 420 24 278
1947321N07145 1947 94 WP MM GLADYS 1947-11-17 09:00:00 TS 7.45826 143.302 main 1136 1130 P________P_P__ WP241947 7.45826 143.302 50 0 7.45826 143.302 TC 50 7.45826 143.302 50 996 390 23 280
1947321N07145 1947 94 WP MM GLADYS 1947-11-17 12:00:00 TS 7.70000 142.200 main 1132 1126 O________OOO__ jtwc_wp WP241947 7.70000 142.200 50 0 7.70000 142.200 TC 50 7.70000 142.200 2 50 7.70000 142.200 50 996 360 21 288
1947321N07145 1947 94 WP MM GLADYS 1947-11-17 15:00:00 TS 8.11080 141.287 main 1140 1136 P________PPP__ WP241947 8.08973 141.268 52 0 8.08973 141.268 TC 52 8.23722 141.402 2 51 8.08973 141.268 52 995 330 19 299
1947321N07145 1947 94 WP MM GLADYS 1947-11-17 18:00:00 TS 8.63379 140.527 main 1170 1170 O________OPO__ jtwc_wp WP241947 8.60000 140.500 55 0 8.60000 140.500 TC 55 8.76893 140.632 2 52 8.60000 140.500 55 994 300 18 308
1947321N07145 1947 94 WP MM GLADYS 1947-11-17 21:00:00 TS 9.20576 139.855 main 1205 1201 P________PPP__ WP241947 9.17732 139.832 55 0 9.17732 139.832 TC 55 9.29108 139.922 2 53 9.17732 139.832 55 993 330 17 314
1947321N07145 1947 94 WP MM GLADYS 1947-11-18 00:00:00 TS 9.80000 139.300 main 1245 1245 O________OOO__ jtwc_wp WP241947 9.80000 139.300 55 0 9.80000 139.300 TC 55 9.80000 139.300 2 55 9.80000 139.300 55 993 360 16 321
1947321N07145 1947 94 WP MM GLADYS 1947-11-18 03:00:00 TS 10.4171 138.844 main 1293 1293 P________PPP__ WP241947 10.4598 138.862 55 0 10.4598 138.862 TC 55 10.2887 138.790 2 56 10.4598 138.862 55 992 300 14 324
1947321N07145 1947 94 WP MM GLADYS 1947-11-18 06:00:00 TS 10.9339 138.471 main 1338 1320 O________OPO__ jtwc_wp WP241947 11.0000 138.500 55 0 11.0000 138.500 TC 55 10.7355 138.383 2 57 11.0000 138.500 55 991 240 11 318
1947321N07145 1947 94 WP MM GLADYS 1947-11-18 09:00:00 TS 11.2293 138.104 main 1320 1292 P________PPP__ WP241947 11.2675 138.120 57 0 11.2675 138.120 TC 57 11.1146 138.059 2 58 11.2675 138.120 57 990 270 8 305
1947321N07145 1947 94 WP MM GLADYS 1947-11-18 12:00:00 TS 11.4000 137.800 main 1292 1274 O________OOO__ jtwc_wp WP241947 11.4000 137.800 60 0 11.4000 137.800 TC 60 11.4000 137.800 2 60 11.4000 137.800 60 990 300 6 299
1947321N07145 1947 94 WP MM GLADYS 1947-11-18 15:00:00 TS 11.5080 137.594 main 1274 1257 P________PPP__ WP241947 11.5049 137.592 62 0 11.5049 137.592 TC 62 11.5173 137.599 2 62 11.5049 137.592 62 989 360 5 308
1947321N07145 1947 94 WP MM GLADYS 1947-11-18 18:00:00 TS 11.7000 137.400 main 1257 1232 O________OOO__ jtwc_wp WP241947 11.7000 137.400 65 1 11.7000 137.400 TC 65 11.7000 137.400 3 65 11.7000 137.400 65 988 420 8 321
1947321N07145 1947 94 WP MM GLADYS 1947-11-18 21:00:00 TS 12.1215 137.083 main 1235 1211 P________PPP__ WP241947 12.1176 137.078 67 1 12.1176 137.078 TC 67 12.1333 137.097 3 67 12.1176 137.078 67 987 330 12 330
1947321N07145 1947 94 WP MM GLADYS 1947-11-19 00:00:00 TS 12.7000 136.800 main 1212 1207 O________OOO__ jtwc_wp WP241947 12.7000 136.800 70 1 12.7000 136.800 TC 70 12.7000 136.800 4 70 12.7000 136.800 70 987 240 13 343
1947321N07145 1947 94 WP MM GLADYS 1947-11-19 03:00:00 TS 13.3702 136.703 main 1215 1215 P________PPP__ WP241947 13.3999 136.727 72 1 13.3999 136.727 TC 72 13.2810 136.631 4 68 13.3999 136.727 72 987 240 14 354
1947321N07145 1947 94 WP MM GLADYS 1947-11-19 06:00:00 TS 14.0499 136.659 main 1230 1222 O________OPO__ jtwc_wp WP241947 14.1000 136.700 75 1 14.1000 136.700 TC 75 13.8997 136.538 4 67 14.1000 136.700 75 988 240 13 353
1947321N07145 1947 94 WP MM GLADYS 1947-11-19 09:00:00 TS 14.6077 136.548 main 1220 1219 P________PPP__ WP241947 14.6375 136.572 70 1 14.6375 136.572 TC 70 14.5186 136.475 4 66 14.6375 136.572 70 989 240 11 347
1947321N07145 1947 94 WP MM GLADYS 1947-11-19 12:00:00 TS 15.1000 136.400 main 1222 1213 O________OOO__ jtwc_wp WP241947 15.1000 136.400 65 1 15.1000 136.400 TC 65 15.1000 136.400 4 65 15.1000 136.400 65 990 240 10 341
1947321N07145 1947 94 WP MM GLADYS 1947-11-19 15:00:00 TS 15.5614 136.203 main 1216 1206 P________PPP__ WP241947 15.5575 136.200 60 0 15.5575 136.200 TC 60 15.5729 136.210 4 61 15.5575 136.200 60 990 240 10 337
1947321N07145 1947 94 WP MM GLADYS 1947-11-19 18:00:00 TS 16.0019 136.001 main 1209 1203 O________OPO__ jtwc_wp WP241947 16.0000 136.000 55 0 16.0000 136.000 TC 55 16.0077 136.006 4 57 16.0000 136.000 55 991 240 10 337
1947321N07145 1947 94 WP MM GLADYS 1947-11-19 21:00:00 TS 16.4359 135.821 main 1205 1205 P________PPP__ WP241947 16.4350 135.820 52 0 16.4350 135.820 TC 52 16.4386 135.823 4 53 16.4350 135.820 52 992 270 9 342
1947321N07145 1947 94 WP MM GLADYS 1947-11-20 00:00:00 TS 16.9000 135.700 main 1217 1217 O________OOO__ jtwc_wp WP241947 16.9000 135.700 50 0 16.9000 135.700 TC 50 16.9000 135.700 2 50 16.9000 135.700 50 993 300 10 351
1947321N07145 1947 94 WP MM GLADYS 1947-11-20 03:00:00 TS 17.4283 135.655 main 1241 1241 P________PPP__ WP241947 17.4275 135.662 47 0 17.4275 135.662 TC 47 17.4306 135.633 2 47 17.4275 135.662 47 993 270 11 359
1947321N07145 1947 94 WP MM GLADYS 1947-11-20 06:00:00 TS 17.9992 135.684 main 1272 1272 O________OPO__ jtwc_wp WP241947 18.0000 135.700 45 0 18.0000 135.700 TC 45 17.9970 135.636 2 45 18.0000 135.700 45 994 240 12 5
1947321N07145 1947 94 WP MM GLADYS 1947-11-20 09:00:00 TS 18.5862 135.752 main 1315 1315 P________PPP__ WP241947 18.5850 135.763 42 0 18.5850 135.763 TC 42 18.5899 135.721 2 42 18.5850 135.763 42 995 270 12 10
1947321N07145 1947 94 WP MM GLADYS 1947-11-20 12:00:00 TS 19.2000 135.900 main 1360 1360 O________OOO__ jtwc_wp WP241947 19.2000 135.900 40 0 19.2000 135.900 TC 40 19.2000 135.900 2 40 19.2000 135.900 40 996 300 13 15
1947321N07145 1947 94 WP MM GLADYS 1947-11-20 15:00:00 TS 19.8490 136.100 main 1362 1303 P________PPP__ WP241947 19.8498 136.090 40 0 19.8498 136.090 TC 40 19.8465 136.128 2 40 19.8498 136.090 40 997 330 14 20
1947321N07145 1947 94 WP MM GLADYS 1947-11-20 18:00:00 TS 20.5003 136.414 main 1303 1261 O________OPO__ jtwc_wp WP241947 20.5000 136.400 40 0 20.5000 136.400 TC 40 20.5013 136.455 2 40 20.5000 136.400 40 998 360 15 29
1947321N07145 1947 94 WP MM GLADYS 1947-11-20 21:00:00 TS 21.1300 136.850 main 1261 1232 P________PPP__ WP241947 21.1299 136.840 40 0 21.1299 136.840 TC 40 21.1305 136.879 2 40 21.1299 136.840 40 998 360 15 37
1947321N07145 1947 94 WP MM GLADYS 1947-11-21 00:00:00 TS 21.7000 137.400 main 1233 1216 O________OOO__ jtwc_wp WP241947 21.7000 137.400 40 0 21.7000 137.400 TC 40 21.7000 137.400 2 40 21.7000 137.400 40 999 360 15 45
1947321N07145 1947 94 WP MM GLADYS 1947-11-21 03:00:00 TS 22.1877 138.005 main 1217 1213 P________PPP__ WP241947 22.1873 138.013 42 0 22.1873 138.013 TC 42 22.1889 137.983 2 41 22.1873 138.013 42 998 270 15 53
1947321N07145 1947 94 WP MM GLADYS 1947-11-21 06:00:00 TS 22.6030 138.690 main 1218 1213 O________OPO__ jtwc_wp WP241947 22.6000 138.700 45 0 22.6000 138.700 TC 45 22.6120 138.658 2 42 22.6000 138.700 45 998 180 15 59
1947321N07145 1947 94 WP MM GLADYS 1947-11-21 09:00:00 TS 22.9853 139.433 main 1213 1202 P________PPP__ WP241947 22.9874 139.443 45 0 22.9874 139.443 TC 45 22.9791 139.405 2 43 22.9874 139.443 45 997 180 16 63
1947321N07145 1947 94 WP MM GLADYS 1947-11-21 12:00:00 TS 23.3000 140.200 main 1206 1203 O________OOO__ jtwc_wp WP241947 23.3000 140.200 45 0 23.3000 140.200 TC 45 23.3000 140.200 2 45 23.3000 140.200 45 997 180 15 68
1947321N07145 1947 94 WP MM GLADYS 1947-11-21 15:00:00 TS 23.5260 140.904 main 1211 1205 P________PPP__ WP241947 23.5064 140.864 45 0 23.5064 140.864 TC 45 23.5847 141.025 2 45 23.5064 140.864 45 996 180 14 72
1947321N07145 1947 94 WP MM GLADYS 1947-11-21 18:00:00 TS 23.7302 141.658 main 1225 1220 O________OPO__ jtwc_wp WP241947 23.7000 141.600 45 0 23.7000 141.600 TC 45 23.8411 141.870 2 45 23.7000 141.600 45 996 180 16 74
1947321N07145 1947 94 WP MM GLADYS 1947-11-21 21:00:00 TS 23.9742 142.611 main 1238 1232 P________PPP__ WP241947 23.9484 142.600 45 0 23.9484 142.600 TC 45 24.0770 142.731 2 45 23.9746 142.536 45 995 180 19 72
1947321N07145 1947 94 WP MM GLADYS 1947-11-22 00:00:00 TS 24.3000 143.600 main 1235 1200 O________OOO__ jtwc_wp WP241947 24.3000 143.600 45 0 24.3000 143.600 TC 45 24.3000 143.600 2 45 24.3000 143.600 45 995 180 18 61
1947321N07145 1947 94 WP MM GLADYS 1947-11-22 03:00:00 TS 24.8332 144.301 main 1203 1167 P________P____ WP241947 24.8332 144.301 42 0 24.8332 144.301 TC 42 2 17 49
1947321N07145 1947 94 WP MM GLADYS 1947-11-22 06:00:00 TS 25.4000 145.000 main 1167 1156 O________O____ jtwc_wp WP241947 25.4000 145.000 40 0 25.4000 145.000 TC 40 2 18 55
1947321N07145 1947 94 WP MM GLADYS 1947-11-22 09:00:00 TS 25.8450 145.924 main 1166 1161 P________P____ WP241947 25.8450 145.924 35 0 25.8450 145.924 TC 35 2 20 66
1947321N07145 1947 94 WP MM GLADYS 1947-11-22 12:00:00 TS 26.2000 147.000 main 1183 O________O____ jtwc_wp WP241947 26.2000 147.000 30 -1 26.2000 147.000 TC 30 21 70

Digital Typhoon Data and Search

About IBTrACS Database

This database is a web-friendly format of International Best Track Archive for Climate Stewardship (IBTrACS), a global best track data archive curated by NOAA dating back to 1842.

Updated: 2021-12-03